Time;durP1;ratioP1;P1;durP2;ratioP2;P2;SDS_P1;SDS_P2;PMS_P1;PMS_P2;Temp;Humidity;BMP_temperature;BMP_pressure;BME280_temperature;BME280_humidity;BME280_pressure;Samples;Min_cycle;Max_cycle;Signal;HPM_P1;HPM_P2
2021/08/16 00:00:06;;;;;;;0.20;0.05;;;17.20;99.90;;;;;;4806717;30;20464;-83
2021/08/16 00:02:33;;;;;;;0.13;0.10;;;17.20;99.90;;;;;;4821850;30;20082;-83
2021/08/16 00:05:04;;;;;;;0.00;0.00;;;17.20;99.90;;;;;;4806546;30;20111;-83
2021/08/16 00:07:31;;;;;;;0.30;0.10;;;17.20;99.90;;;;;;4821684;29;20043;-83
2021/08/16 00:09:58;;;;;;;0.25;0.10;;;17.20;99.90;;;;;;4791797;30;20043;-83
2021/08/16 00:12:25;;;;;;;0.00;0.00;;;17.20;99.90;;;;;;4821840;30;20044;-83
2021/08/16 00:14:53;;;;;;;0.20;0.20;;;17.20;99.90;;;;;;4806285;30;20051;-83
2021/08/16 00:17:19;;;;;;;0.00;0.00;;;17.20;99.90;;;;;;4821958;29;20074;-83
2021/08/16 00:19:46;;;;;;;0.13;0.10;;;17.20;99.90;;;;;;4806337;30;20495;-83
2021/08/16 00:22:13;;;;;;;0.45;0.32;;;17.10;99.90;;;;;;4821540;30;20053;-83
2021/08/16 00:24:40;;;;;;;0.10;0.08;;;17.10;99.90;;;;;;4806718;30;20055;-83
2021/08/16 00:27:07;;;;;;;0.00;0.00;;;17.10;99.90;;;;;;4806040;30;20047;-83
2021/08/16 00:29:34;;;;;;;0.15;0.10;;;17.10;99.90;;;;;;4806472;30;20043;-83
2021/08/16 00:32:01;;;;;;;0.52;0.25;;;17.10;99.90;;;;;;4820862;30;20047;-81
2021/08/16 00:34:28;;;;;;;0.05;0.05;;;17.10;99.90;;;;;;4806356;30;20122;-81
2021/08/16 00:36:55;;;;;;;0.10;0.10;;;17.10;99.90;;;;;;4791307;30;20461;-81
2021/08/16 00:39:24;;;;;;;0.00;0.00;;;17.20;99.90;;;;;;4777043;30;20078;-81
2021/08/16 00:41:51;;;;;;;0.10;0.10;;;17.20;99.90;;;;;;4820741;30;20039;-80
2021/08/16 00:44:18;;;;;;;0.00;0.00;;;17.20;99.90;;;;;;4777012;30;20055;-80
2021/08/16 00:46:45;;;;;;;0.00;0.00;;;17.20;99.90;;;;;;4791122;30;20043;-81
2021/08/16 00:49:13;;;;;;;0.00;0.00;;;17.20;99.90;;;;;;4805979;30;20035;-81
2021/08/16 00:51:41;;;;;;;0.10;0.10;;;17.10;99.90;;;;;;4791887;30;20039;-81
2021/08/16 00:54:09;;;;;;;0.25;0.20;;;17.10;99.90;;;;;;4803693;30;20051;-82
2021/08/16 00:56:37;;;;;;;1.25;0.65;;;17.10;99.90;;;;;;4803834;30;20139;-82
2021/08/16 00:59:06;;;;;;;0.30;0.20;;;17.00;99.90;;;;;;4802613;30;20063;-81
2021/08/16 01:01:33;;;;;;;0.10;0.10;;;17.00;99.90;;;;;;4802778;30;20047;-81
2021/08/16 01:04:01;;;;;;;0.65;0.32;;;17.00;99.90;;;;;;4802359;30;20174;-81
2021/08/16 01:06:29;;;;;;;0.75;0.30;;;17.00;99.90;;;;;;4802738;30;20452;-81
2021/08/16 01:08:56;;;;;;;0.00;0.00;;;17.00;99.90;;;;;;4817190;29;20067;-81
2021/08/16 01:11:23;;;;;;;0.20;0.13;;;17.00;99.90;;;;;;4803922;30;20468;-81
2021/08/16 01:13:54;;;;;;;0.00;0.00;;;17.00;99.90;;;;;;4787902;30;20063;-81
2021/08/16 01:16:21;;;;;;;0.03;0.03;;;17.00;99.90;;;;;;4802364;30;20119;-81
2021/08/16 01:18:49;;;;;;;0.00;0.00;;;17.00;99.90;;;;;;4802591;30;20432;-81
2021/08/16 01:21:17;;;;;;;0.00;0.00;;;17.00;99.90;;;;;;4787862;30;20493;-82
2021/08/16 01:23:46;;;;;;;0.00;0.00;;;17.00;99.90;;;;;;4817333;30;20048;-81
2021/08/16 01:26:14;;;;;;;0.00;0.00;;;17.00;99.90;;;;;;4816733;30;20055;-81
2021/08/16 01:28:41;;;;;;;0.00;0.00;;;16.90;99.90;;;;;;4817003;30;20044;-82
2021/08/16 01:31:09;;;;;;;0.00;0.00;;;16.90;99.90;;;;;;4801425;30;20040;-81
2021/08/16 01:33:38;;;;;;;0.00;0.00;;;16.90;99.90;;;;;;4787528;30;20463;-81
2021/08/16 01:36:05;;;;;;;0.00;0.00;;;16.90;99.90;;;;;;4787277;30;20058;-82
2021/08/16 01:38:35;;;;;;;0.00;0.00;;;16.90;99.90;;;;;;4787413;30;20040;-81
2021/08/16 01:41:03;;;;;;;0.10;0.10;;;16.90;99.90;;;;;;4816643;30;20485;-81
2021/08/16 01:43:30;;;;;;;0.00;0.00;;;16.90;99.90;;;;;;4802074;30;20052;-81
2021/08/16 01:45:59;;;;;;;0.45;0.30;;;16.90;99.90;;;;;;4816600;30;20043;-82
2021/08/16 01:48:29;;;;;;;0.38;0.10;;;16.90;99.90;;;;;;4802506;30;20044;-82
2021/08/16 01:50:56;;;;;;;0.00;0.00;;;16.90;99.90;;;;;;4772165;30;20039;-82
2021/08/16 01:53:22;;;;;;;0.00;0.00;;;16.90;99.90;;;;;;4802028;30;20042;-81
2021/08/16 01:55:49;;;;;;;0.10;0.00;;;16.90;99.90;;;;;;4787081;30;20055;-82
2021/08/16 01:58:16;;;;;;;0.00;0.00;;;16.90;99.90;;;;;;4801580;30;20044;-82
2021/08/16 02:00:43;;;;;;;0.00;0.00;;;16.80;99.90;;;;;;4787365;30;20051;-81
2021/08/16 02:03:10;;;;;;;0.00;0.00;;;16.80;99.90;;;;;;4786712;30;20047;-82
2021/08/16 02:05:37;;;;;;;0.03;0.03;;;16.80;99.90;;;;;;4801795;30;20105;-82
2021/08/16 02:08:04;;;;;;;0.10;0.10;;;16.80;99.90;;;;;;4801427;30;20050;-81
2021/08/16 02:10:31;;;;;;;0.10;0.10;;;16.80;99.90;;;;;;4801888;30;20477;-82
2021/08/16 02:12:58;;;;;;;0.00;0.00;;;16.80;99.90;;;;;;4801361;30;20043;-82
2021/08/16 02:15:24;;;;;;;0.00;0.00;;;16.70;99.90;;;;;;4801648;30;20554;-82
2021/08/16 02:17:51;;;;;;;0.00;0.00;;;16.80;99.90;;;;;;4801543;30;20083;-82
2021/08/16 02:20:18;;;;;;;0.08;0.08;;;16.80;99.90;;;;;;4786599;30;20048;-81
2021/08/16 02:22:46;;;;;;;0.20;0.08;;;16.70;99.90;;;;;;4801669;30;20039;-81
2021/08/16 02:25:12;;;;;;;0.10;0.10;;;16.70;99.90;;;;;;4786578;30;20408;-81
2021/08/16 02:27:48;;;;;;;0.00;0.00;;;16.80;99.90;;;;;;4786869;30;20055;-81
2021/08/16 02:30:16;;;;;;;0.00;0.00;;;16.80;99.90;;;;;;4816064;30;20036;-82
2021/08/16 02:32:44;;;;;;;0.30;0.17;;;16.70;99.90;;;;;;4801573;30;20496;-82
2021/08/16 02:35:11;;;;;;;0.00;0.00;;;16.70;99.90;;;;;;4801070;30;20134;-82
2021/08/16 02:37:39;;;;;;;0.38;0.22;;;16.70;99.90;;;;;;4786819;30;20043;-81
2021/08/16 02:40:08;;;;;;;0.10;0.10;;;16.70;99.90;;;;;;4786350;30;20043;-82
2021/08/16 02:42:35;;;;;;;0.00;0.00;;;16.70;99.90;;;;;;4819955;29;20058;-81
2021/08/16 02:45:03;;;;;;;0.00;0.00;;;16.70;99.90;;;;;;4819674;29;20048;-81
2021/08/16 02:47:30;;;;;;;0.00;0.00;;;16.70;99.90;;;;;;4820182;30;20048;-81
2021/08/16 02:49:57;;;;;;;0.00;0.00;;;16.70;99.90;;;;;;4790257;30;20073;-81
2021/08/16 02:52:23;;;;;;;0.00;0.00;;;16.80;99.90;;;;;;4804692;30;20400;-81
2021/08/16 02:54:53;;;;;;;0.00;0.00;;;16.80;99.90;;;;;;4805944;30;20083;-81
2021/08/16 02:57:21;;;;;;;0.00;0.00;;;16.80;99.90;;;;;;4804415;30;20476;-81
2021/08/16 02:59:48;;;;;;;0.00;0.00;;;16.80;99.90;;;;;;4819900;30;20113;-81
2021/08/16 03:02:14;;;;;;;0.00;0.00;;;16.80;99.90;;;;;;4789835;30;20072;-81
2021/08/16 03:04:41;;;;;;;0.00;0.00;;;16.80;99.90;;;;;;4804773;30;20047;-81
2021/08/16 03:07:09;;;;;;;0.10;0.10;;;16.80;99.90;;;;;;4805405;30;20481;-81
2021/08/16 03:09:36;;;;;;;0.00;0.00;;;16.80;99.90;;;;;;4804790;30;20070;-81
2021/08/16 03:12:03;;;;;;;0.00;0.00;;;16.80;99.90;;;;;;4804356;30;20063;-81
2021/08/16 03:14:30;;;;;;;0.13;0.13;;;16.80;99.90;;;;;;4804794;30;20051;-81
2021/08/16 03:16:57;;;;;;;0.00;0.00;;;16.80;99.90;;;;;;4774862;30;20057;-81
2021/08/16 03:19:24;;;;;;;0.00;0.00;;;16.80;99.90;;;;;;4789510;30;20043;-81
2021/08/16 03:21:50;;;;;;;0.00;0.00;;;16.80;99.90;;;;;;4789833;30;20048;-81
2021/08/16 03:24:18;;;;;;;0.00;0.00;;;16.80;99.90;;;;;;4789314;30;20071;-81
2021/08/16 03:26:45;;;;;;;0.00;0.00;;;16.80;99.90;;;;;;4804507;30;20052;-81
2021/08/16 03:29:13;;;;;;;0.00;0.00;;;16.80;99.90;;;;;;4804082;30;20047;-81
2021/08/16 03:31:39;;;;;;;0.10;0.10;;;16.80;99.90;;;;;;4804535;30;20052;-81
2021/08/16 03:34:06;;;;;;;0.00;0.00;;;16.80;99.90;;;;;;4789304;30;20119;-81
2021/08/16 03:36:33;;;;;;;0.10;0.10;;;16.80;99.90;;;;;;4804409;30;20048;-81
2021/08/16 03:39:00;;;;;;;0.00;0.00;;;16.80;99.90;;;;;;4789655;30;20059;-81
2021/08/16 03:41:27;;;;;;;0.00;0.00;;;16.80;99.90;;;;;;4803822;30;20126;-81
2021/08/16 03:43:54;;;;;;;0.00;0.00;;;16.80;99.90;;;;;;4789496;30;20507;-81
2021/08/16 03:46:20;;;;;;;0.00;0.00;;;16.80;99.90;;;;;;4789054;30;20127;-81
2021/08/16 03:48:47;;;;;;;0.00;0.00;;;16.80;99.90;;;;;;4818970;30;20044;-81
2021/08/16 03:51:14;;;;;;;0.10;0.10;;;16.80;99.90;;;;;;4804737;30;20067;-81
2021/08/16 03:53:41;;;;;;;0.00;0.00;;;16.70;99.90;;;;;;4788333;30;20092;-81
2021/08/16 03:56:10;;;;;;;0.10;0.10;;;16.80;99.90;;;;;;4788779;30;20434;-81
2021/08/16 03:58:41;;;;;;;0.00;0.00;;;16.70;99.90;;;;;;4804434;30;20035;-81
2021/08/16 04:01:12;;;;;;;5.47;1.27;;;16.80;99.90;;;;;;4788838;30;20044;-81
2021/08/16 04:03:41;;;;;;;3.85;1.65;;;16.70;99.90;;;;;;4789281;30;20052;-81
2021/08/16 04:06:08;;;;;;;5.45;2.08;;;16.70;99.90;;;;;;4789172;30;20122;-81
2021/08/16 04:08:39;;;;;;;2.08;0.90;;;16.70;99.90;;;;;;4818586;30;20078;-81
2021/08/16 04:11:07;;;;;;;1.20;1.05;;;16.70;99.90;;;;;;4804884;30;20126;-81
2021/08/16 04:13:34;;;;;;;0.95;0.25;;;16.70;99.90;;;;;;4788966;30;20054;-80
2021/08/16 04:16:01;;;;;;;0.43;0.25;;;16.70;99.90;;;;;;4803381;30;20047;-81
2021/08/16 04:18:28;;;;;;;0.00;0.00;;;16.70;99.90;;;;;;4788185;30;20044;-81
2021/08/16 04:20:55;;;;;;;7.22;0.40;;;16.70;99.90;;;;;;4818097;30;20047;-81
2021/08/16 04:23:23;;;;;;;0.00;0.00;;;16.70;99.90;;;;;;4802661;30;20120;-81
2021/08/16 04:25:50;;;;;;;0.00;0.00;;;16.70;99.90;;;;;;4803160;30;20056;-81
2021/08/16 04:28:17;;;;;;;0.57;0.10;;;16.70;99.90;;;;;;4817078;29;20039;-81
2021/08/16 04:30:48;;;;;;;0.00;0.00;;;16.70;99.90;;;;;;4774611;30;20086;-81
2021/08/16 04:33:15;;;;;;;0.00;0.00;;;16.70;99.90;;;;;;4787735;30;20109;-82
2021/08/16 04:35:42;;;;;;;0.00;0.00;;;16.70;99.90;;;;;;4802891;30;20044;-82
2021/08/16 04:38:10;;;;;;;0.00;0.00;;;16.70;99.90;;;;;;4788106;30;20040;-84
2021/08/16 04:40:37;;;;;;;0.00;0.00;;;16.60;99.90;;;;;;4803081;30;20083;-83
2021/08/16 04:43:03;;;;;;;0.10;0.05;;;16.60;99.90;;;;;;4803103;30;20070;-83
2021/08/16 04:45:30;;;;;;;0.00;0.00;;;16.60;99.90;;;;;;4788076;30;20459;-83
2021/08/16 04:47:57;;;;;;;0.70;0.35;;;16.50;99.90;;;;;;4788425;30;20047;-83
2021/08/16 04:50:24;;;;;;;0.10;0.10;;;16.50;99.90;;;;;;4802678;30;20112;-83
2021/08/16 04:52:51;;;;;;;0.00;0.00;;;16.50;99.90;;;;;;4803049;30;20043;-83
2021/08/16 04:55:17;;;;;;;0.00;0.00;;;16.50;99.90;;;;;;4787786;30;20040;-83
2021/08/16 04:57:45;;;;;;;0.00;0.00;;;16.40;99.90;;;;;;4803025;30;20066;-83
2021/08/16 05:00:14;;;;;;;0.45;0.22;;;16.40;99.90;;;;;;4802697;30;20051;-84
2021/08/16 05:02:42;;;;;;;0.00;0.00;;;16.40;99.90;;;;;;4788536;30;20055;-83
2021/08/16 05:05:14;;;;;;;0.00;0.00;;;16.40;99.90;;;;;;4802756;30;20052;-84
2021/08/16 05:07:50;;;;;;;0.00;0.00;;;16.40;99.90;;;;;;4802846;30;20044;-84
2021/08/16 05:10:18;;;;;;;0.10;0.10;;;16.40;99.90;;;;;;4817243;30;20040;-84
2021/08/16 05:12:46;;;;;;;0.00;0.00;;;16.40;99.90;;;;;;4788101;30;20044;-83
2021/08/16 05:15:13;;;;;;;0.00;0.00;;;16.40;99.90;;;;;;4787843;30;20108;-83
2021/08/16 05:17:40;;;;;;;0.00;0.00;;;16.50;99.90;;;;;;4808451;29;20086;-83
2021/08/16 05:20:09;;;;;;;0.00;0.00;;;16.50;99.90;;;;;;4813459;29;20070;-83
2021/08/16 05:22:39;;;;;;;0.00;0.00;;;16.50;99.90;;;;;;4784392;30;20071;-83
2021/08/16 05:25:07;;;;;;;0.00;0.00;;;16.40;99.90;;;;;;4787126;30;20043;-83
2021/08/16 05:27:54;;;;;;;0.00;0.00;;;16.40;99.90;;;;;;4775569;30;20047;-82
2021/08/16 05:30:38;;;;;;;0.00;0.00;;;16.40;99.90;;;;;;4789711;30;20047;-82
2021/08/16 05:33:06;;;;;;;0.00;0.00;;;16.40;99.90;;;;;;4784345;30;20147;-82
2021/08/16 05:35:38;;;;;;;0.00;0.00;;;16.40;99.90;;;;;;4795679;30;20048;-83
2021/08/16 05:38:05;;;;;;;0.00;0.00;;;16.50;99.90;;;;;;4794845;30;20110;-83
2021/08/16 05:40:36;;;;;;;0.00;0.00;;;16.50;99.90;;;;;;4787572;30;20079;-83
2021/08/16 05:43:02;;;;;;;0.05;0.05;;;16.50;99.90;;;;;;4784610;30;20450;-83
2021/08/16 05:45:30;;;;;;;0.00;0.00;;;16.50;99.90;;;;;;4775819;30;20135;-82
2021/08/16 05:47:57;;;;;;;0.00;0.00;;;16.50;99.90;;;;;;4802042;30;20114;-82
2021/08/16 05:50:25;;;;;;;0.00;0.00;;;16.60;99.90;;;;;;4801766;30;20093;-82
2021/08/16 05:52:52;;;;;;;0.00;0.00;;;16.60;99.90;;;;;;4801993;30;20544;-83
2021/08/16 05:55:19;;;;;;;0.00;0.00;;;16.60;99.90;;;;;;4801474;30;20050;-82
2021/08/16 05:57:47;;;;;;;0.10;0.10;;;16.60;99.90;;;;;;4802299;30;20093;-82
2021/08/16 06:00:16;;;;;;;0.00;0.00;;;16.70;99.90;;;;;;4787441;30;20475;-81
2021/08/16 06:02:43;;;;;;;0.00;0.00;;;16.70;99.90;;;;;;4787114;30;20507;-81
2021/08/16 06:05:10;;;;;;;0.00;0.00;;;16.70;99.90;;;;;;4787141;30;20048;-83
2021/08/16 06:07:37;;;;;;;0.03;0.03;;;16.70;99.90;;;;;;4802162;30;20047;-83
2021/08/16 06:10:05;;;;;;;0.00;0.00;;;16.80;99.90;;;;;;4783898;30;20055;-83
2021/08/16 06:12:32;;;;;;;0.00;0.00;;;16.90;99.90;;;;;;4768901;30;20039;-83
2021/08/16 06:14:59;;;;;;;0.00;0.00;;;16.90;99.90;;;;;;4781316;30;20044;-82
2021/08/16 06:17:26;;;;;;;0.00;0.00;;;16.90;99.90;;;;;;4782103;30;20473;-82
2021/08/16 06:19:52;;;;;;;0.00;0.00;;;16.90;99.90;;;;;;4775354;30;20110;-82
2021/08/16 06:22:19;;;;;;;0.05;0.03;;;16.90;99.90;;;;;;4777045;30;20048;-82
2021/08/16 06:24:46;;;;;;;0.00;0.00;;;16.90;99.90;;;;;;4777290;30;20071;-82
2021/08/16 06:27:13;;;;;;;0.10;0.10;;;16.80;99.90;;;;;;4771793;30;20063;-82
2021/08/16 06:29:39;;;;;;;0.00;0.00;;;16.80;99.90;;;;;;4783073;30;20044;-82
2021/08/16 06:32:07;;;;;;;0.17;0.17;;;16.80;99.90;;;;;;4768995;30;20055;-81
2021/08/16 06:34:39;;;;;;;0.00;0.00;;;16.80;99.90;;;;;;4768614;30;20044;-82
2021/08/16 06:37:06;;;;;;;0.00;0.00;;;16.80;99.90;;;;;;4783905;30;20379;-81
2021/08/16 06:39:33;;;;;;;0.00;0.00;;;16.70;99.90;;;;;;4783249;30;20054;-82
2021/08/16 06:42:00;;;;;;;0.03;0.03;;;16.70;99.90;;;;;;4769046;30;20086;-82
2021/08/16 06:44:27;;;;;;;0.00;0.00;;;16.70;99.90;;;;;;4768685;30;20063;-81
2021/08/16 06:46:54;;;;;;;0.00;0.00;;;16.70;99.90;;;;;;4784866;30;20083;-79
2021/08/16 06:49:24;;;;;;;0.10;0.10;;;16.70;99.90;;;;;;4798535;30;20044;-87
2021/08/16 06:51:51;;;;;;;0.00;0.00;;;16.70;99.90;;;;;;4754267;30;20055;-83
2021/08/16 06:54:19;;;;;;;0.00;0.00;;;16.70;99.90;;;;;;4770627;30;20410;-79
2021/08/16 06:56:46;;;;;;;0.00;0.00;;;16.70;99.90;;;;;;4800575;30;20466;-79
2021/08/16 06:59:13;;;;;;;0.00;0.00;;;16.70;99.90;;;;;;4786710;30;20394;-79
2021/08/16 07:01:40;;;;;;;0.00;0.00;;;16.70;99.90;;;;;;4786042;30;20101;-78
2021/08/16 07:04:06;;;;;;;0.00;0.00;;;16.80;99.90;;;;;;4786573;30;20058;-83
2021/08/16 07:06:33;;;;;;;0.00;0.00;;;16.80;99.90;;;;;;4771600;30;20075;-82
2021/08/16 07:09:00;;;;;;;0.00;0.00;;;16.90;99.90;;;;;;4786402;30;20116;-80
2021/08/16 07:11:27;;;;;;;0.00;0.00;;;16.90;99.90;;;;;;4786385;30;20036;-84
2021/08/16 07:13:54;;;;;;;0.00;0.00;;;16.80;99.90;;;;;;4786837;30;20054;-79
2021/08/16 07:16:23;;;;;;;0.00;0.00;;;16.80;99.90;;;;;;4786325;30;20047;-79
2021/08/16 07:18:50;;;;;;;0.00;0.00;;;16.70;99.90;;;;;;4786252;30;20489;-79
2021/08/16 07:21:16;;;;;;;0.40;0.28;;;16.70;99.90;;;;;;4786240;30;20067;-80
2021/08/16 07:23:43;;;;;;;0.05;0.05;;;16.60;99.90;;;;;;4785799;30;20043;-81
2021/08/16 07:26:10;;;;;;;0.00;0.00;;;16.60;99.90;;;;;;4786322;30;20054;-82
2021/08/16 07:28:37;;;;;;;0.00;0.00;;;16.60;99.90;;;;;;4789227;30;20055;-81
2021/08/16 07:31:04;;;;;;;0.00;0.00;;;16.60;99.90;;;;;;4804374;30;20036;-88
2021/08/16 07:33:31;;;;;;;0.00;0.00;;;16.60;99.90;;;;;;4804162;30;20052;-81
2021/08/16 07:35:59;;;;;;;0.00;0.00;;;16.60;99.90;;;;;;4787278;30;20059;-79
2021/08/16 07:38:34;;;;;;;0.00;0.00;;;16.60;99.90;;;;;;4791474;30;20044;-85
2021/08/16 07:41:01;;;;;;;0.00;0.00;;;16.60;99.90;;;;;;4791530;30;20064;-82
2021/08/16 07:43:28;;;;;;;0.00;0.00;;;16.60;99.90;;;;;;4789630;30;20433;-79
2021/08/16 07:45:54;;;;;;;0.00;0.00;;;16.60;99.90;;;;;;4803814;30;20044;-79
2021/08/16 07:48:21;;;;;;;0.05;0.05;;;16.60;99.90;;;;;;4805535;30;20046;-79
2021/08/16 07:50:48;;;;;;;0.10;0.10;;;16.60;99.90;;;;;;4788863;30;20047;-79
2021/08/16 07:53:15;;;;;;;0.00;0.00;;;16.60;99.90;;;;;;4803868;30;20453;-80
2021/08/16 07:55:42;;;;;;;0.00;0.00;;;16.70;99.90;;;;;;4788744;30;20554;-81
2021/08/16 07:58:08;;;;;;;0.00;0.00;;;16.70;99.90;;;;;;4789468;30;20504;-82
2021/08/16 08:00:35;;;;;;;0.00;0.00;;;16.90;99.90;;;;;;4774245;30;20071;-81
2021/08/16 08:03:02;;;;;;;0.00;0.00;;;16.90;99.90;;;;;;4789161;30;20048;-81
2021/08/16 08:05:29;;;;;;;0.00;0.00;;;16.90;99.90;;;;;;4803798;30;20047;-80
2021/08/16 08:07:56;;;;;;;0.00;0.00;;;17.00;99.90;;;;;;4788500;30;20553;-88
2021/08/16 08:24:09;;;;;;;0.00;0.00;;;17.10;99.90;;;;;;4835755;29;20074;-74
2021/08/16 08:26:36;;;;;;;0.00;0.00;;;17.20;99.90;;;;;;4824995;29;20051;-74
2021/08/16 08:29:03;;;;;;;0.43;0.08;;;17.30;99.90;;;;;;4840500;29;20130;-73
2021/08/16 08:31:29;;;;;;;0.03;0.03;;;17.30;99.90;;;;;;4824639;29;20046;-74
2021/08/16 08:33:56;;;;;;;0.00;0.00;;;17.40;99.90;;;;;;4840620;29;20104;-74
2021/08/16 08:36:23;;;;;;;0.00;0.00;;;17.30;99.90;;;;;;4824543;29;20055;-73
2021/08/16 08:38:50;;;;;;;0.15;0.10;;;17.30;99.90;;;;;;4823958;29;20050;-73
2021/08/16 08:41:17;;;;;;;0.00;0.00;;;17.30;99.90;;;;;;4824639;29;20490;-74
2021/08/16 08:43:45;;;;;;;0.00;0.00;;;17.40;99.90;;;;;;4840416;29;20046;-74
2021/08/16 08:46:13;;;;;;;0.10;0.05;;;17.30;99.90;;;;;;4823927;29;20046;-77
2021/08/16 08:48:40;;;;;;;0.00;0.00;;;17.20;99.90;;;;;;4825604;29;20066;-74
2021/08/16 08:51:07;;;;;;;0.00;0.00;;;17.10;99.90;;;;;;4853306;29;20042;-77
2021/08/16 08:53:34;;;;;;;0.00;0.00;;;17.20;99.90;;;;;;4825059;29;20038;-74
2021/08/16 08:56:01;;;;;;;0.00;0.00;;;17.10;99.90;;;;;;4808996;29;20080;-74
2021/08/16 08:58:28;;;;;;;0.00;0.00;;;17.20;99.90;;;;;;4823894;29;20035;-74
2021/08/16 09:00:55;;;;;;;0.00;0.00;;;17.20;99.90;;;;;;4823913;29;20054;-73
2021/08/16 09:03:22;;;;;;;0.00;0.00;;;17.20;99.90;;;;;;4824106;29;20412;-74
2021/08/16 09:05:55;;;;;;;0.00;0.00;;;17.20;99.90;;;;;;4823924;29;20043;-76
2021/08/16 09:08:32;;;;;;;0.00;0.00;;;17.20;99.90;;;;;;4823749;29;20398;-78
2021/08/16 09:11:06;;;;;;;0.00;0.00;;;17.30;99.90;;;;;;4823853;29;20472;-77
2021/08/16 09:13:33;;;;;;;0.00;0.00;;;17.30;99.90;;;;;;4823990;29;20039;-80
2021/08/16 09:16:08;;;;;;;0.00;0.00;;;17.40;99.90;;;;;;4823976;29;20043;-79
2021/08/16 09:18:35;;;;;;;0.00;0.00;;;17.50;99.90;;;;;;4824041;29;20047;-79
2021/08/16 09:21:02;;;;;;;0.00;0.00;;;17.70;99.90;;;;;;4841549;29;20046;-79
2021/08/16 09:23:39;;;;;;;0.10;0.05;;;18.10;99.90;;;;;;4841444;29;20058;-78
2021/08/16 09:26:07;;;;;;;0.03;0.03;;;18.40;99.90;;;;;;4842027;29;20046;-78
2021/08/16 09:28:34;;;;;;;0.00;0.00;;;18.60;99.90;;;;;;4827251;29;20047;-83
2021/08/16 09:31:23;;;;;;;0.00;0.00;;;18.50;99.90;;;;;;4821732;29;20479;-89
2021/08/16 09:34:00;;;;;;;3.08;0.55;;;18.40;99.90;;;;;;4838883;29;20034;-79
2021/08/16 09:36:35;;;;;;;0.08;0.05;;;18.10;99.90;;;;;;4830643;29;20592;-79
2021/08/16 09:39:21;;;;;;;0.05;0.05;;;17.70;99.90;;;;;;4838987;29;20054;-80
2021/08/16 09:41:55;;;;;;;;;;;17.20;99.90;;;;;;4826114;29;20046;-81
2021/08/16 09:44:22;;;;;;;0.00;0.00;;;16.80;99.90;;;;;;4823282;29;19921;-80
2021/08/16 09:47:04;;;;;;;0.00;0.00;;;16.50;99.90;;;;;;4808642;29;20050;-79
2021/08/16 09:49:32;;;;;;;0.00;0.00;;;16.40;99.90;;;;;;4832796;29;20042;-76
2021/08/16 09:52:11;;;;;;;0.00;0.00;;;16.20;99.90;;;;;;4822555;29;20118;-77
2021/08/16 09:54:40;;;;;;;0.00;0.00;;;16.20;99.90;;;;;;4850665;29;20095;-76
2021/08/16 09:57:07;;;;;;;0.00;0.00;;;16.20;99.90;;;;;;4857711;29;20042;-79
2021/08/16 09:59:35;;;;;;;0.57;0.30;;;16.20;99.90;;;;;;4810077;29;20045;-77
2021/08/16 10:02:03;;;;;;;0.00;0.00;;;16.00;99.90;;;;;;4839481;29;20087;-76
2021/08/16 10:04:32;;;;;;;0.30;0.30;;;15.90;99.90;;;;;;4822763;29;20051;-78
2021/08/16 10:06:59;;;;;;;0.00;0.00;;;15.70;99.90;;;;;;4813306;29;20047;-76
2021/08/16 10:09:27;;;;;;;1.15;0.30;;;15.70;99.90;;;;;;4840924;29;20070;-79
2021/08/16 10:11:55;;;;;;;0.00;0.00;;;15.60;99.90;;;;;;4841654;29;20471;-78
2021/08/16 10:14:29;;;;;;;0.00;0.00;;;15.60;99.90;;;;;;4841010;29;20479;-79
2021/08/16 10:16:57;;;;;;;0.00;0.00;;;15.50;99.90;;;;;;4841388;29;20133;-78
2021/08/16 10:19:35;;;;;;;0.00;0.00;;;15.50;99.90;;;;;;4825991;29;20043;-79
2021/08/16 10:22:03;;;;;;;0.00;0.00;;;15.60;99.90;;;;;;4825739;29;20050;-78
2021/08/16 10:24:30;;;;;;;0.00;0.00;;;15.70;99.90;;;;;;4804381;30;20063;-81
2021/08/16 10:27:03;;;;;;;0.00;0.00;;;15.80;99.90;;;;;;4804948;30;20411;-82
2021/08/16 10:29:32;;;;;;;0.00;0.00;;;15.80;99.90;;;;;;4805106;30;20074;-80
2021/08/16 10:32:00;;;;;;;0.00;0.00;;;15.80;99.90;;;;;;4819165;29;20476;-80
2021/08/16 10:34:37;;;;;;;0.00;0.00;;;15.90;99.90;;;;;;4807872;29;20134;-79
2021/08/16 10:37:11;;;;;;;0.00;0.00;;;16.10;99.90;;;;;;4838126;29;20047;-78
2021/08/16 10:39:39;;;;;;;1.30;0.73;;;16.10;99.90;;;;;;4822864;29;20493;-79
2021/08/16 10:42:11;;;;;;;0.00;0.00;;;16.20;99.90;;;;;;4837740;29;20133;-78
2021/08/16 10:44:44;;;;;;;0.00;0.00;;;16.20;99.90;;;;;;4837636;29;20045;-81
2021/08/16 10:47:25;;;;;;;0.00;0.00;;;16.20;99.90;;;;;;4838001;29;20039;-80
2021/08/16 10:50:11;;;;;;;0.00;0.00;;;16.30;99.90;;;;;;4837985;29;20095;-80
2021/08/16 10:52:39;;;;;;;;;;;16.30;99.90;;;;;;4828220;29;20040;-79
2021/08/16 10:55:16;;;;;;;0.00;0.00;;;16.40;99.90;;;;;;4835816;29;19928;-80
2021/08/16 10:57:44;;;;;;;0.00;0.00;;;16.50;99.90;;;;;;4823790;29;20118;-82
2021/08/16 11:00:13;;;;;;;0.00;0.00;;;16.50;99.90;;;;;;4824280;29;20042;-81
2021/08/16 11:02:41;;;;;;;0.00;0.00;;;16.50;99.90;;;;;;4829439;29;20096;-83
2021/08/16 11:05:11;;;;;;;0.00;0.00;;;16.40;99.90;;;;;;4826841;29;20125;-80
2021/08/16 11:07:40;;;;;;;0.00;0.00;;;16.50;99.90;;;;;;4795939;30;20063;-82
2021/08/16 11:10:09;;;;;;;0.00;0.00;;;16.60;99.90;;;;;;4836567;29;20043;-83
2021/08/16 11:12:44;;;;;;;0.00;0.00;;;16.50;99.90;;;;;;4821731;30;20070;-80
2021/08/16 11:15:12;;;;;;;0.00;0.00;;;16.40;99.90;;;;;;4823171;30;20112;-80
2021/08/16 11:17:38;;;;;;;0.00;0.00;;;16.40;99.90;;;;;;4822742;30;20047;-80
2021/08/16 11:20:14;;;;;;;0.00;0.00;;;16.40;99.90;;;;;;4837995;29;20476;-77
2021/08/16 11:22:52;;;;;;;0.00;0.00;;;16.40;99.90;;;;;;4825265;29;20094;-79
2021/08/16 11:25:19;;;;;;;0.00;0.00;;;16.40;99.90;;;;;;4825661;29;20057;-77
2021/08/16 11:27:48;;;;;;;0.20;0.10;;;16.60;99.90;;;;;;4825540;29;20461;-77
2021/08/16 12:40:21;;;;;;;0.00;0.00;;;17.70;99.90;;;;;;587798;24;21107;-82
2021/08/16 12:43:01;;;;;;;0.00;0.00;;;17.60;99.90;;;;;;4876933;29;20087;-88
2021/08/16 12:45:28;;;;;;;0.00;0.00;;;17.60;99.90;;;;;;4879741;29;20052;-92
2021/08/16 12:48:04;;;;;;;0.63;0.25;;;17.70;99.90;;;;;;4876851;29;20070;-87
2021/08/16 12:50:33;;;;;;;1.65;0.30;;;17.90;99.90;;;;;;4872567;29;20057;-89
2021/08/16 12:53:02;;;;;;;0.00;0.00;;;18.10;99.90;;;;;;4861442;29;20046;-87
2021/08/16 12:55:29;;;;;;;0.00;0.00;;;18.20;99.90;;;;;;4877277;29;20042;-86
2021/08/16 12:57:56;;;;;;;0.03;0.03;;;18.30;99.90;;;;;;4873726;29;20397;-88
2021/08/16 13:00:23;;;;;;;0.00;0.00;;;18.40;99.90;;;;;;4851510;29;20042;-88
2021/08/16 13:02:49;;;;;;;0.00;0.00;;;18.30;99.90;;;;;;4846033;29;20466;-84
2021/08/16 13:05:16;;;;;;;0.30;0.30;;;18.10;99.90;;;;;;4845652;29;20053;-87
2021/08/16 13:07:43;;;;;;;0.00;0.00;;;17.90;99.90;;;;;;4841057;29;20042;-87
2021/08/16 13:10:10;;;;;;;0.00;0.00;;;17.80;99.90;;;;;;4875945;29;20069;-87
2021/08/16 13:12:37;;;;;;;0.00;0.00;;;17.90;99.90;;;;;;4845812;29;20046;-86
2021/08/16 13:15:05;;;;;;;0.00;0.00;;;17.90;99.90;;;;;;4845596;29;20120;-80
2021/08/16 13:17:32;;;;;;;0.00;0.00;;;17.90;99.90;;;;;;4860662;29;20403;-91
2021/08/16 13:19:59;;;;;;;0.00;0.00;;;17.80;99.90;;;;;;4845833;29;20067;-89
2021/08/16 13:22:25;;;;;;;0.00;0.00;;;18.00;99.90;;;;;;4845426;29;20121;-83
2021/08/16 13:24:52;;;;;;;0.00;0.00;;;18.00;99.90;;;;;;4858042;29;20607;-86
2021/08/16 13:27:19;;;;;;;0.17;0.10;;;17.90;99.90;;;;;;4847372;29;20041;-84
2021/08/16 13:29:46;;;;;;;0.10;0.00;;;17.80;99.90;;;;;;4845637;29;20508;-85
2021/08/16 13:32:12;;;;;;;0.00;0.00;;;17.60;99.90;;;;;;4860303;29;20501;-91
2021/08/16 13:34:39;;;;;;;0.15;0.10;;;17.40;99.90;;;;;;4845840;29;20530;-91
2021/08/16 13:37:10;;;;;;;0.00;0.00;;;17.20;99.90;;;;;;4848455;29;20041;-87
2021/08/16 13:39:37;;;;;;;0.00;0.00;;;16.80;99.90;;;;;;4842971;29;20046;-90
2021/08/16 13:42:04;;;;;;;0.00;0.00;;;16.50;99.90;;;;;;4869050;29;20509;-90
2021/08/16 13:44:32;;;;;;;0.00;0.00;;;16.40;99.90;;;;;;4864406;29;20056;-91
2021/08/16 13:46:59;;;;;;;0.10;0.10;;;16.60;99.90;;;;;;4864643;29;20042;-86
2021/08/16 13:49:26;;;;;;;0.10;0.10;;;16.60;99.90;;;;;;4863885;29;20069;-93
2021/08/16 13:51:53;;;;;;;0.00;0.00;;;16.70;99.90;;;;;;4848723;29;20076;-88
2021/08/16 13:54:20;;;;;;;0.00;0.00;;;16.90;99.90;;;;;;4863945;29;20485;-93
2021/08/16 13:56:46;;;;;;;0.00;0.00;;;17.10;99.90;;;;;;4849160;29;20059;-90
2021/08/16 13:59:14;;;;;;;0.00;0.00;;;17.10;99.90;;;;;;4848617;29;20046;-89
2021/08/16 14:01:41;;;;;;;0.00;0.00;;;16.90;99.90;;;;;;4878979;29;20038;-91
2021/08/16 14:04:09;;;;;;;0.00;0.00;;;17.00;99.90;;;;;;4848638;29;20057;-83
2021/08/16 14:06:35;;;;;;;0.60;0.05;;;17.20;99.90;;;;;;4859953;29;20038;-89
2021/08/16 14:09:05;;;;;;;0.20;0.03;;;17.30;99.90;;;;;;4860190;29;20045;-85
2021/08/16 14:11:32;;;;;;;0.00;0.00;;;17.60;99.90;;;;;;4859686;29;20045;-80
2021/08/16 14:13:59;;;;;;;0.00;0.00;;;17.90;99.90;;;;;;4844688;29;20041;-89
2021/08/16 14:16:28;;;;;;;0.32;0.32;;;17.80;99.90;;;;;;4860033;29;20049;-85